Time;durP1;ratioP1;P1;durP2;ratioP2;P2;SDS_P1;SDS_P2;PMS_P1;PMS_P2;Temp;Humidity;BMP_temperature;BMP_pressure;BME280_temperature;BME280_humidity;BME280_pressure;Samples;Min_cycle;Max_cycle;Signal;HPM_P1;HPM_P2
2022/07/15 00:00:08;;;;;;;3.10;2.80;;;24.80;58.70;;;;;;4982324;28;20391;-66
2022/07/15 00:02:34;;;;;;;3.05;2.75;;;24.90;58.80;;;;;;4980498;28;20404;-66
2022/07/15 00:04:59;;;;;;;3.20;2.90;;;24.80;58.80;;;;;;4979991;28;20759;-66
2022/07/15 00:07:25;;;;;;;3.08;2.63;;;24.80;58.70;;;;;;4978550;28;20422;-67
2022/07/15 00:12:35;;;;;;;3.70;2.70;;;24.80;58.70;;;;;;4981998;28;20382;-66
2022/07/15 00:15:01;;;;;;;2.90;2.43;;;24.80;58.70;;;;;;4978941;28;20394;-66
2022/07/15 00:17:27;;;;;;;3.10;2.80;;;24.80;58.70;;;;;;4981623;28;20394;-67
2022/07/15 00:19:53;;;;;;;3.33;3.03;;;24.80;58.70;;;;;;4980794;28;20411;-71
2022/07/15 00:22:18;;;;;;;3.25;2.85;;;24.80;58.70;;;;;;4977129;28;20400;-67
2022/07/15 00:24:44;;;;;;;4.20;2.70;;;24.80;58.70;;;;;;4981425;28;20930;-67
2022/07/15 00:27:09;;;;;;;3.30;2.80;;;24.80;58.70;;;;;;4981358;28;20437;-66
2022/07/15 00:29:35;;;;;;;3.00;2.70;;;24.80;58.80;;;;;;4994973;28;20412;-67
2022/07/15 00:32:01;;;;;;;3.00;2.70;;;24.80;58.80;;;;;;4980556;28;20396;-68
2022/07/15 00:34:26;;;;;;;3.33;2.70;;;24.80;58.70;;;;;;4979903;28;20432;-67
2022/07/15 00:36:52;;;;;;;3.10;2.90;;;24.80;58.80;;;;;;4981722;28;20814;-66
2022/07/15 00:39:18;;;;;;;3.15;2.90;;;24.80;58.80;;;;;;4978800;28;21007;-67
2022/07/15 00:41:44;;;;;;;3.27;2.97;;;24.80;58.80;;;;;;4981704;28;20784;-66
2022/07/15 00:44:10;;;;;;;3.63;3.00;;;24.80;58.90;;;;;;4980095;28;20403;-68
2022/07/15 00:46:36;;;;;;;3.28;2.80;;;24.80;58.90;;;;;;4985124;28;20849;-72
2022/07/15 00:49:06;;;;;;;3.00;2.70;;;24.80;59.00;;;;;;4982115;28;20404;-66
2022/07/15 00:51:41;;;;;;;3.20;2.90;;;24.80;59.00;;;;;;4979453;28;20422;-66
2022/07/15 00:54:10;;;;;;;3.40;3.10;;;24.80;59.00;;;;;;4979940;28;20405;-69
2022/07/15 00:56:38;;;;;;;3.08;2.78;;;24.70;59.00;;;;;;4980687;28;20884;-72
2022/07/15 00:59:06;;;;;;;3.53;3.22;;;24.80;59.10;;;;;;4979219;28;20421;-66
2022/07/15 01:01:35;;;;;;;3.67;3.30;;;24.80;59.10;;;;;;4979919;28;20795;-66
2022/07/15 01:04:03;;;;;;;3.58;3.08;;;24.70;59.00;;;;;;4979855;28;20461;-67
2022/07/15 01:06:29;;;;;;;3.45;3.10;;;24.80;59.10;;;;;;4981463;28;20391;-67
2022/07/15 01:08:54;;;;;;;3.40;3.10;;;24.80;59.20;;;;;;4980498;28;20520;-66
2022/07/15 01:11:20;;;;;;;4.30;3.20;;;24.80;59.20;;;;;;4978992;28;20394;-67
2022/07/15 01:13:46;;;;;;;4.00;3.03;;;24.80;59.20;;;;;;4983752;28;20397;-67
2022/07/15 01:16:12;;;;;;;3.63;3.30;;;24.70;59.20;;;;;;4982062;28;20427;-66
2022/07/15 01:18:38;;;;;;;3.17;2.87;;;24.80;59.30;;;;;;4982344;28;20435;-68
2022/07/15 01:21:04;;;;;;;3.50;3.20;;;24.80;59.30;;;;;;4984544;28;20394;-67
2022/07/15 01:23:29;;;;;;;3.50;3.20;;;24.70;59.30;;;;;;4982918;28;20400;-67
2022/07/15 01:25:55;;;;;;;3.60;3.30;;;24.70;59.30;;;;;;4983931;28;20393;-66
2022/07/15 01:28:21;;;;;;;3.72;3.38;;;24.70;59.30;;;;;;4983540;28;20462;-66
2022/07/15 01:30:47;;;;;;;3.90;3.47;;;24.70;59.30;;;;;;4983685;28;20419;-66
2022/07/15 01:33:13;;;;;;;3.65;3.28;;;24.70;59.40;;;;;;4982347;28;20399;-66
2022/07/15 01:35:39;;;;;;;3.63;3.33;;;24.80;59.40;;;;;;4982676;28;20401;-66
2022/07/15 01:38:05;;;;;;;3.85;3.45;;;24.70;59.40;;;;;;4982071;28;20400;-68
2022/07/15 01:40:30;;;;;;;3.60;3.30;;;24.70;59.30;;;;;;4982741;28;20387;-67
2022/07/15 01:42:56;;;;;;;3.40;3.10;;;24.70;59.40;;;;;;4983835;28;20435;-66
2022/07/15 01:45:22;;;;;;;3.50;3.20;;;24.70;59.30;;;;;;4984672;28;20408;-66
2022/07/15 01:47:49;;;;;;;4.63;3.42;;;24.70;59.30;;;;;;4983233;28;20458;-66
2022/07/15 01:50:15;;;;;;;3.40;3.10;;;24.70;59.30;;;;;;4983520;28;20396;-67
2022/07/15 01:52:41;;;;;;;3.70;3.40;;;24.70;59.30;;;;;;4982695;28;20884;-68
2022/07/15 01:55:08;;;;;;;3.50;3.20;;;24.70;59.30;;;;;;4982845;28;20401;-66
2022/07/15 01:57:34;;;;;;;3.58;3.28;;;24.70;59.30;;;;;;4981464;28;20428;-66
2022/07/15 02:00:00;;;;;;;3.87;3.47;;;24.70;59.30;;;;;;4982522;28;20394;-66
2022/07/15 02:02:26;;;;;;;3.72;3.42;;;24.70;59.30;;;;;;4982894;28;20402;-66
2022/07/15 02:04:51;;;;;;;4.43;3.50;;;24.70;59.30;;;;;;4982417;28;20388;-66
2022/07/15 02:07:18;;;;;;;3.90;3.50;;;24.70;59.30;;;;;;4984883;28;20460;-66
2022/07/15 02:09:43;;;;;;;3.65;3.35;;;24.70;59.40;;;;;;4983878;28;20469;-67
2022/07/15 02:12:09;;;;;;;3.97;3.57;;;24.70;59.40;;;;;;4982054;28;20794;-70
2022/07/15 02:14:35;;;;;;;3.92;3.60;;;24.70;59.40;;;;;;4982884;28;20406;-66
2022/07/15 02:17:02;;;;;;;4.03;3.67;;;24.70;59.40;;;;;;4983374;28;20523;-68
2022/07/15 02:19:28;;;;;;;4.18;3.80;;;24.70;59.40;;;;;;4979980;28;20408;-67
2022/07/15 02:21:54;;;;;;;4.47;3.58;;;24.70;59.40;;;;;;4982946;28;20449;-67
2022/07/15 02:24:19;;;;;;;3.63;3.30;;;24.70;59.40;;;;;;4982774;28;20873;-68
2022/07/15 02:26:46;;;;;;;3.60;3.20;;;24.70;59.50;;;;;;4980268;28;20467;-66
2022/07/15 02:29:12;;;;;;;3.47;3.17;;;24.70;59.50;;;;;;4981698;28;20418;-67
2022/07/15 02:31:38;;;;;;;3.38;3.08;;;24.70;59.50;;;;;;4980130;28;20401;-67
2022/07/15 02:34:04;;;;;;;3.70;3.40;;;24.60;59.50;;;;;;4982170;28;20482;-67
2022/07/15 02:36:30;;;;;;;3.97;3.38;;;24.70;59.50;;;;;;4981572;28;20396;-67
2022/07/15 02:38:56;;;;;;;3.30;3.00;;;24.70;59.50;;;;;;4982689;28;20407;-66
2022/07/15 02:41:23;;;;;;;3.60;3.30;;;24.70;59.50;;;;;;4981060;28;20387;-68
2022/07/15 02:43:49;;;;;;;3.95;3.55;;;24.70;59.60;;;;;;5012763;28;20410;-67
2022/07/15 02:46:15;;;;;;;3.58;3.28;;;24.70;59.50;;;;;;4982333;28;20816;-66
2022/07/15 02:48:41;;;;;;;4.27;3.40;;;24.60;59.50;;;;;;4979440;28;20425;-66
2022/07/15 02:51:07;;;;;;;3.75;3.20;;;24.60;59.50;;;;;;4982787;28;20390;-68
2022/07/15 02:53:33;;;;;;;3.47;3.17;;;24.70;59.60;;;;;;4981314;28;20929;-66
2022/07/15 02:56:00;;;;;;;5.00;3.35;;;24.70;59.60;;;;;;4980245;28;20418;-66
2022/07/15 02:58:27;;;;;;;3.78;3.30;;;24.70;59.60;;;;;;4983033;28;20465;-71
2022/07/15 03:00:53;;;;;;;3.95;3.35;;;24.60;59.60;;;;;;4980271;28;20483;-67
2022/07/15 03:03:19;;;;;;;3.72;3.20;;;24.60;59.60;;;;;;4981042;28;20481;-66
2022/07/15 03:05:45;;;;;;;3.90;3.40;;;24.60;59.40;;;;;;4981684;28;20398;-66
2022/07/15 03:08:11;;;;;;;5.28;3.40;;;24.60;59.60;;;;;;4981244;28;20430;-66
2022/07/15 03:10:36;;;;;;;6.10;3.13;;;24.60;59.70;;;;;;4980570;28;20395;-67
2022/07/15 03:13:02;;;;;;;3.80;3.40;;;24.60;60.40;;;;;;4982646;28;20396;-66
2022/07/15 03:15:28;;;;;;;5.18;4.00;;;24.60;59.80;;;;;;4979673;28;20402;-66
2022/07/15 03:17:54;;;;;;;4.88;3.70;;;24.60;61.40;;;;;;4981396;28;20400;-66
2022/07/15 03:20:19;;;;;;;7.53;4.30;;;24.70;60.50;;;;;;4981415;28;20812;-66
2022/07/15 03:22:45;;;;;;;7.80;3.90;;;24.70;62.70;;;;;;4982759;28;20395;-66
2022/07/15 03:25:11;;;;;;;5.65;4.00;;;24.70;62.90;;;;;;4980860;28;20385;-67
2022/07/15 03:27:37;;;;;;;7.03;3.90;;;24.80;61.60;;;;;;4981189;28;20433;-66
2022/07/15 03:30:04;;;;;;;5.88;3.92;;;24.80;63.40;;;;;;4986815;28;20394;-65
2022/07/15 03:32:29;;;;;;;5.47;3.83;;;24.90;63.20;;;;;;4973413;28;20523;-65
2022/07/15 03:34:57;;;;;;;7.10;4.20;;;24.90;63.40;;;;;;4973213;28;20483;-66
2022/07/15 03:37:22;;;;;;;6.30;4.23;;;24.90;63.50;;;;;;4971664;28;20532;-65
2022/07/15 03:39:48;;;;;;;4.93;3.80;;;24.90;63.50;;;;;;4971731;28;20495;-66
2022/07/15 03:42:14;;;;;;;8.47;4.10;;;24.90;63.60;;;;;;4971345;28;20412;-66
2022/07/15 03:44:39;;;;;;;8.88;4.20;;;24.90;63.70;;;;;;4972723;28;20535;-66
2022/07/15 03:47:05;;;;;;;7.67;3.83;;;24.90;63.50;;;;;;4970984;28;20949;-65
2022/07/15 03:49:31;;;;;;;6.17;4.13;;;25.00;63.50;;;;;;4970786;28;20396;-65
2022/07/15 03:51:57;;;;;;;6.50;4.18;;;24.90;62.40;;;;;;4972899;28;20384;-66
2022/07/15 03:54:23;;;;;;;6.93;3.43;;;24.90;63.00;;;;;;4971703;28;20412;-65
2022/07/15 03:56:49;;;;;;;5.28;3.60;;;25.00;62.70;;;;;;4970721;28;20479;-66
2022/07/15 03:59:15;;;;;;;6.85;3.53;;;25.00;62.50;;;;;;4972288;28;20400;-65
2022/07/15 04:01:41;;;;;;;5.97;3.63;;;25.00;62.30;;;;;;4972383;28;20799;-66
2022/07/15 04:04:07;;;;;;;7.35;3.67;;;25.00;62.20;;;;;;4972483;28;20961;-66
2022/07/15 04:06:33;;;;;;;4.50;3.90;;;25.00;62.20;;;;;;4972213;28;21117;-66
2022/07/15 04:08:58;;;;;;;6.43;3.95;;;25.00;62.80;;;;;;4972084;28;20400;-66
2022/07/15 04:11:24;;;;;;;6.60;3.90;;;25.00;62.30;;;;;;4972012;28;20906;-66
2022/07/15 04:13:50;;;;;;;6.65;4.00;;;25.00;62.20;;;;;;4972854;28;20427;-66
2022/07/15 04:16:16;;;;;;;4.17;3.47;;;25.00;61.90;;;;;;4972585;28;20412;-66
2022/07/15 04:18:41;;;;;;;6.20;3.88;;;25.00;61.90;;;;;;4972456;28;20400;-65
2022/07/15 04:21:07;;;;;;;4.40;3.67;;;25.00;61.80;;;;;;4972617;28;20480;-65
2022/07/15 04:23:33;;;;;;;5.63;3.90;;;25.00;61.50;;;;;;4976737;28;20773;-66
2022/07/15 04:25:59;;;;;;;7.75;3.83;;;25.00;61.50;;;;;;4974825;28;20937;-66
2022/07/15 04:28:26;;;;;;;5.10;3.80;;;25.00;61.40;;;;;;4972337;28;20455;-67
2022/07/15 04:30:51;;;;;;;4.22;3.83;;;25.00;61.40;;;;;;4976706;28;20387;-66
2022/07/15 04:33:19;;;;;;;6.57;3.60;;;25.00;61.40;;;;;;4972229;28;20786;-66
2022/07/15 04:35:44;;;;;;;6.90;3.90;;;24.90;61.50;;;;;;4971731;28;20427;-66
2022/07/15 04:38:10;;;;;;;7.50;3.77;;;24.90;61.20;;;;;;4972231;28;20435;-66
2022/07/15 04:40:38;;;;;;;7.50;3.45;;;24.90;61.40;;;;;;4972358;28;20404;-66
2022/07/15 04:43:03;;;;;;;5.88;3.70;;;24.90;61.40;;;;;;4972367;28;20878;-66
2022/07/15 04:45:29;;;;;;;11.27;3.97;;;24.90;61.40;;;;;;4971701;28;20437;-66
2022/07/15 04:47:55;;;;;;;10.95;4.75;;;24.90;62.00;;;;;;4973341;28;20415;-66
2022/07/15 04:53:06;;;;;;;9.47;4.87;;;25.00;62.50;;;;;;4976324;28;20457;-70
2022/07/15 04:55:33;;;;;;;10.40;5.03;;;25.00;61.60;;;;;;4976686;28;20388;-68
2022/07/15 04:57:59;;;;;;;10.57;5.03;;;25.00;61.50;;;;;;4976738;28;20396;-66
2022/07/15 05:00:24;;;;;;;12.13;5.60;;;24.90;61.90;;;;;;4976492;28;20400;-66
2022/07/15 05:02:50;;;;;;;10.05;5.35;;;24.80;61.10;;;;;;4975074;28;20411;-66
2022/07/15 05:05:16;;;;;;;7.05;4.70;;;24.80;61.60;;;;;;4975601;28;20423;-66
2022/07/15 05:07:42;;;;;;;7.63;5.07;;;24.80;61.70;;;;;;4976176;28;20416;-70
2022/07/15 05:10:09;;;;;;;9.03;5.10;;;24.80;61.00;;;;;;4976008;28;20392;-66
2022/07/15 05:12:35;;;;;;;6.88;5.05;;;24.80;61.40;;;;;;4975654;28;20388;-66
2022/07/15 05:15:01;;;;;;;8.77;5.43;;;24.80;61.90;;;;;;4976233;28;20396;-66
2022/07/15 05:17:27;;;;;;;7.47;4.82;;;24.70;62.50;;;;;;4975017;28;20392;-66
2022/07/15 05:19:53;;;;;;;8.73;5.20;;;24.80;62.00;;;;;;4975531;28;20483;-66
2022/07/15 05:22:20;;;;;;;8.02;5.15;;;24.80;62.90;;;;;;4975600;28;20479;-66
2022/07/15 05:24:45;;;;;;;7.72;5.20;;;24.80;62.40;;;;;;4973893;28;20396;-66
2022/07/15 05:27:11;;;;;;;8.13;5.00;;;24.80;61.70;;;;;;4973583;28;20416;-66
2022/07/15 05:29:37;;;;;;;7.72;4.80;;;24.80;61.10;;;;;;4974478;28;20948;-66
2022/07/15 05:32:03;;;;;;;7.17;5.17;;;24.70;61.60;;;;;;4975356;28;20396;-66
2022/07/15 05:34:28;;;;;;;6.50;5.25;;;24.70;61.40;;;;;;4975031;28;20428;-66
2022/07/15 05:36:54;;;;;;;7.20;5.00;;;24.70;61.00;;;;;;4975137;28;20908;-70
2022/07/15 05:39:20;;;;;;;7.07;5.13;;;24.70;60.80;;;;;;4974720;28;20484;-66
2022/07/15 05:41:45;;;;;;;7.75;5.00;;;24.70;61.20;;;;;;4974570;28;20404;-66
2022/07/15 05:44:11;;;;;;;7.27;5.33;;;24.60;60.90;;;;;;4974092;28;20407;-66
2022/07/15 05:46:37;;;;;;;7.47;5.30;;;24.70;61.20;;;;;;4974694;28;20427;-66
2022/07/15 05:49:02;;;;;;;6.68;5.05;;;24.60;61.10;;;;;;4974881;28;20404;-66
2022/07/15 05:51:28;;;;;;;7.40;5.40;;;24.60;61.10;;;;;;4973046;28;20396;-67
2022/07/15 05:53:54;;;;;;;6.40;5.18;;;24.60;61.00;;;;;;4976580;28;20538;-66
2022/07/15 05:56:20;;;;;;;8.48;5.38;;;24.60;61.10;;;;;;4974716;28;20945;-67
2022/07/15 05:58:46;;;;;;;6.95;5.10;;;24.60;61.10;;;;;;4974210;28;21151;-66
2022/07/15 06:01:11;;;;;;;6.90;4.93;;;24.60;61.10;;;;;;4973897;28;20400;-66
2022/07/15 06:03:37;;;;;;;5.63;4.50;;;24.60;61.10;;;;;;4974173;28;20762;-66
2022/07/15 06:06:04;;;;;;;6.27;4.70;;;24.60;61.00;;;;;;4973417;28;20503;-66
2022/07/15 06:08:30;;;;;;;7.88;4.30;;;24.60;61.10;;;;;;4989638;28;20431;-66
2022/07/15 06:10:56;;;;;;;8.25;4.50;;;24.60;61.10;;;;;;4974486;28;20396;-66
2022/07/15 06:13:22;;;;;;;6.57;4.57;;;24.60;61.00;;;;;;4974330;28;20392;-66
2022/07/15 06:15:48;;;;;;;7.47;4.72;;;24.60;61.00;;;;;;4974405;28;20483;-66
2022/07/15 06:18:13;;;;;;;6.40;4.30;;;24.60;61.00;;;;;;4974077;28;20811;-69
2022/07/15 06:20:39;;;;;;;8.77;4.80;;;24.60;61.10;;;;;;4974473;28;20388;-67
2022/07/15 06:23:05;;;;;;;7.30;4.70;;;24.60;61.10;;;;;;4975036;28;20969;-66
2022/07/15 06:25:30;;;;;;;7.20;4.60;;;24.60;61.60;;;;;;4973659;28;20402;-66
2022/07/15 06:27:56;;;;;;;5.20;4.60;;;24.60;61.00;;;;;;4974846;28;20451;-67
2022/07/15 06:30:22;;;;;;;5.57;4.40;;;24.60;61.00;;;;;;4974060;28;20403;-66
2022/07/15 06:32:48;;;;;;;6.00;4.53;;;24.50;60.90;;;;;;4974039;28;20400;-66
2022/07/15 06:35:13;;;;;;;6.03;4.07;;;24.50;60.80;;;;;;4972889;28;20388;-66
2022/07/15 06:37:39;;;;;;;5.50;4.30;;;24.50;60.80;;;;;;4973044;28;20416;-67
2022/07/15 06:40:06;;;;;;;5.38;4.43;;;24.50;60.90;;;;;;4974086;28;20478;-67
2022/07/15 06:42:32;;;;;;;5.78;4.10;;;24.60;60.90;;;;;;4971377;28;20802;-66
2022/07/15 06:44:57;;;;;;;6.07;4.40;;;24.50;60.80;;;;;;4972195;28;20467;-67
2022/07/15 06:47:23;;;;;;;4.93;4.20;;;24.50;60.80;;;;;;4973424;28;20420;-66
2022/07/15 06:49:50;;;;;;;4.77;3.83;;;24.60;60.80;;;;;;4972078;28;20882;-66
2022/07/15 06:52:16;;;;;;;4.65;4.10;;;24.50;60.80;;;;;;4972389;28;20481;-66
2022/07/15 06:54:41;;;;;;;5.07;4.20;;;24.50;60.80;;;;;;4973591;28;20895;-67
2022/07/15 06:57:08;;;;;;;4.50;4.00;;;24.50;60.70;;;;;;4972435;28;20400;-66
2022/07/15 06:59:34;;;;;;;4.85;4.10;;;24.50;60.70;;;;;;4973389;28;20403;-66
2022/07/15 07:02:00;;;;;;;5.13;4.38;;;24.50;60.70;;;;;;4973640;28;20483;-66
2022/07/15 07:04:26;;;;;;;4.80;3.90;;;24.50;60.70;;;;;;4973494;28;20538;-66
2022/07/15 07:06:51;;;;;;;5.13;4.07;;;24.50;60.60;;;;;;4973450;28;20396;-66
2022/07/15 07:09:17;;;;;;;5.10;4.15;;;24.50;60.60;;;;;;4973470;28;20400;-66
2022/07/15 07:11:42;;;;;;;5.83;4.23;;;24.60;60.70;;;;;;4972778;28;20798;-66
2022/07/15 07:14:08;;;;;;;4.00;3.55;;;24.60;60.70;;;;;;4973330;28;20762;-66
2022/07/15 07:16:34;;;;;;;4.72;4.20;;;24.60;60.70;;;;;;4973404;28;20850;-67
2022/07/15 07:19:00;;;;;;;4.53;4.13;;;24.50;60.60;;;;;;4972869;28;20728;-66
2022/07/15 07:21:26;;;;;;;4.85;4.20;;;24.60;60.60;;;;;;4973545;28;20396;-66
2022/07/15 07:23:52;;;;;;;4.40;4.00;;;24.50;60.60;;;;;;4972085;28;20890;-66
2022/07/15 07:26:18;;;;;;;4.90;4.40;;;24.50;60.50;;;;;;4973352;28;20427;-66
2022/07/15 07:28:45;;;;;;;4.57;4.17;;;24.50;60.50;;;;;;4973767;28;20428;-66
2022/07/15 07:31:13;;;;;;;4.57;3.78;;;24.50;60.50;;;;;;4973889;28;20388;-68
2022/07/15 07:33:39;;;;;;;4.20;3.80;;;24.50;60.50;;;;;;4974362;28;20798;-69
2022/07/15 07:36:06;;;;;;;4.38;3.90;;;24.50;60.50;;;;;;4974100;28;20550;-66
2022/07/15 07:38:32;;;;;;;4.45;4.05;;;24.60;60.50;;;;;;4972898;28;20870;-67
2022/07/15 07:40:58;;;;;;;4.93;4.03;;;24.60;60.50;;;;;;4971011;28;20763;-66
2022/07/15 07:43:24;;;;;;;3.72;3.42;;;24.60;60.50;;;;;;4992122;28;20991;-66
2022/07/15 07:45:50;;;;;;;4.38;3.80;;;24.60;60.50;;;;;;4991366;28;20825;-66
2022/07/15 07:48:16;;;;;;;4.03;3.70;;;24.60;60.40;;;;;;4992136;28;20784;-66
2022/07/15 07:50:42;;;;;;;4.10;3.70;;;24.60;60.50;;;;;;4992030;28;20449;-66
2022/07/15 07:53:08;;;;;;;4.82;3.83;;;24.60;60.30;;;;;;4992027;28;20402;-66
2022/07/15 07:55:34;;;;;;;4.17;3.77;;;24.50;60.20;;;;;;4988156;28;20409;-66
2022/07/15 07:58:01;;;;;;;6.72;4.50;;;24.60;60.40;;;;;;4984862;28;20762;-66
2022/07/15 08:00:27;;;;;;;4.85;4.30;;;24.60;60.30;;;;;;4981351;28;20392;-66
2022/07/15 08:02:54;;;;;;;5.13;4.47;;;24.60;60.20;;;;;;4981693;28;20406;-66
2022/07/15 08:05:20;;;;;;;7.47;4.72;;;24.60;60.10;;;;;;4978790;28;20905;-65
2022/07/15 08:07:47;;;;;;;8.77;4.75;;;24.60;59.90;;;;;;4971807;28;20455;-67
2022/07/15 08:10:13;;;;;;;8.00;5.10;;;24.50;60.60;;;;;;4972834;28;20400;-66
2022/07/15 08:12:40;;;;;;;7.50;5.30;;;24.60;61.80;;;;;;4972425;28;20748;-66
2022/07/15 08:15:07;;;;;;;6.20;4.57;;;24.60;63.00;;;;;;4970571;28;20559;-66
2022/07/15 08:17:33;;;;;;;6.30;4.40;;;24.60;62.80;;;;;;4976039;28;20395;-66
2022/07/15 08:19:59;;;;;;;7.00;4.60;;;24.60;62.30;;;;;;4988139;28;20435;-66
2022/07/15 08:22:24;;;;;;;7.10;4.63;;;24.70;61.90;;;;;;4989893;28;20426;-66
2022/07/15 08:24:50;;;;;;;6.22;4.40;;;24.70;61.50;;;;;;4991431;28;20474;-66
2022/07/15 08:27:17;;;;;;;6.50;4.60;;;24.70;62.30;;;;;;4979769;28;20416;-67
2022/07/15 08:29:43;;;;;;;6.25;4.30;;;24.80;61.70;;;;;;4971111;28;20823;-66
2022/07/15 08:32:09;;;;;;;9.60;4.90;;;24.80;61.90;;;;;;4983318;28;20396;-67
2022/07/15 08:34:35;;;;;;;10.30;4.80;;;24.80;62.10;;;;;;4980282;28;20751;-66
2022/07/15 08:37:01;;;;;;;8.90;4.50;;;24.80;61.90;;;;;;4981520;28;20873;-66
2022/07/15 08:39:26;;;;;;;9.10;4.40;;;24.80;61.90;;;;;;4979499;28;20400;-65
2022/07/15 08:41:52;;;;;;;7.10;4.25;;;24.80;62.00;;;;;;4991405;28;20390;-66
2022/07/15 08:44:18;;;;;;;5.57;4.43;;;24.90;62.00;;;;;;4991231;28;20399;-65
2022/07/15 08:46:48;;;;;;;6.85;4.45;;;24.80;61.50;;;;;;4989449;28;20498;-65
2022/07/15 08:49:16;;;;;;;6.57;4.65;;;24.90;61.70;;;;;;4989977;28;20413;-66
2022/07/15 08:51:44;;;;;;;7.07;4.50;;;24.90;61.30;;;;;;4989602;28;20460;-66
2022/07/15 08:54:11;;;;;;;14.02;4.22;;;24.80;61.20;;;;;;4977821;28;20438;-65
2022/07/15 08:56:37;;;;;;;7.30;4.55;;;24.90;60.70;;;;;;4972005;28;20408;-66
2022/07/15 08:59:04;;;;;;;6.10;4.20;;;24.80;60.70;;;;;;4971757;28;20420;-66
2022/07/15 09:01:31;;;;;;;4.53;4.00;;;24.80;60.80;;;;;;4971778;28;20405;-66
2022/07/15 09:03:58;;;;;;;5.32;4.40;;;24.80;60.80;;;;;;4971795;28;20431;-66
2022/07/15 09:06:42;;;;;;;6.13;4.40;;;24.80;60.70;;;;;;4972040;28;20891;-66
2022/07/15 09:09:26;;;;;;;4.97;4.30;;;24.80;60.70;;;;;;4971901;28;20451;-66
2022/07/15 09:12:10;;;;;;;4.50;4.10;;;24.80;60.60;;;;;;4970445;28;20394;-69
2022/07/15 09:14:38;;;;;;;4.75;4.00;;;24.80;60.50;;;;;;4991552;28;20406;-70
2022/07/15 09:17:10;;;;;;;5.10;4.10;;;24.80;60.50;;;;;;4991564;28;20509;-66
2022/07/15 09:19:57;;;;;;;4.80;3.70;;;24.80;60.40;;;;;;4991648;28;20445;-66
2022/07/15 09:22:29;;;;;;;4.70;4.22;;;24.80;60.40;;;;;;4991092;28;20394;-65
2022/07/15 09:25:10;;;;;;;5.15;3.90;;;24.80;60.40;;;;;;4989633;28;20490;-66
2022/07/15 09:27:38;;;;;;;4.90;4.10;;;24.80;60.40;;;;;;4990672;28;20423;-65
2022/07/15 09:36:14;;;;;;;5.40;4.35;;;24.70;60.10;;;;;;4993592;28;20768;-66
2022/07/15 09:38:46;;;;;;;5.78;4.35;;;24.80;60.20;;;;;;4983943;28;20409;-66
2022/07/15 09:41:32;;;;;;;6.25;4.50;;;24.80;61.90;;;;;;4985447;28;20428;-70
2022/07/15 09:44:07;;;;;;;7.90;4.40;;;24.80;62.40;;;;;;4983344;28;20813;-66
2022/07/15 09:46:41;;;;;;;5.00;4.28;;;24.80;61.40;;;;;;4985724;28;20416;-70
2022/07/15 09:49:07;;;;;;;5.10;4.28;;;24.80;62.80;;;;;;4983873;28;20416;-66
2022/07/15 09:51:45;;;;;;;5.70;4.38;;;24.80;62.70;;;;;;5013623;28;20437;-66
2022/07/15 09:54:12;;;;;;;6.00;4.60;;;24.90;62.30;;;;;;4984467;28;20857;-66
2022/07/15 09:56:39;;;;;;;5.90;4.57;;;24.90;61.20;;;;;;4980401;28;20409;-66
2022/07/15 09:59:05;;;;;;;7.63;5.10;;;24.80;60.70;;;;;;4979869;28;20426;-66
2022/07/15 10:01:31;;;;;;;6.93;5.00;;;24.80;60.50;;;;;;4985491;28;20428;-66
2022/07/15 10:03:57;;;;;;;6.43;4.93;;;24.80;60.80;;;;;;4985058;28;20898;-66
2022/07/15 10:06:26;;;;;;;7.17;5.23;;;24.80;60.80;;;;;;4985399;28;20406;-67
2022/07/15 10:08:53;;;;;;;6.13;5.40;;;24.80;60.50;;;;;;4985612;28;20426;-66
2022/07/15 10:11:20;;;;;;;6.63;4.70;;;24.80;60.90;;;;;;4993979;28;20393;-67
2022/07/15 10:14:10;;;;;;;6.75;4.97;;;24.80;60.80;;;;;;4993515;28;20394;-66
2022/07/15 10:17:01;;;;;;;6.35;4.70;;;24.80;61.10;;;;;;4992468;28;20460;-65
2022/07/15 10:19:53;;;;;;;8.73;5.32;;;24.80;61.50;;;;;;4993734;28;20395;-66
2022/07/15 10:22:42;;;;;;;10.05;5.70;;;24.80;61.80;;;;;;4992417;28;20410;-67
2022/07/15 10:25:26;;;;;;;11.75;6.05;;;24.80;61.70;;;;;;4984139;28;20401;-67
2022/07/15 10:28:15;;;;;;;9.50;6.13;;;24.80;61.00;;;;;;4980923;28;20439;-66
2022/07/15 10:30:42;;;;;;;10.07;5.50;;;24.90;62.30;;;;;;4983652;28;20392;-66
2022/07/15 10:33:16;;;;;;;9.77;5.70;;;24.90;62.10;;;;;;4982764;28;20437;-68
2022/07/15 10:35:50;;;;;;;7.97;5.13;;;24.90;61.40;;;;;;4981997;28;20907;-67
2022/07/15 10:38:29;;;;;;;8.20;5.57;;;24.90;61.60;;;;;;4979447;28;20400;-70
2022/07/15 10:41:06;;;;;;;7.60;5.38;;;24.90;62.30;;;;;;4973236;28;20396;-66
2022/07/15 10:43:39;;;;;;;5.82;5.22;;;24.90;61.50;;;;;;4973960;28;20411;-66
2022/07/15 10:46:17;;;;;;;10.55;5.78;;;24.90;61.50;;;;;;4974472;28;20417;-67
2022/07/15 10:48:44;;;;;;;9.18;6.28;;;24.90;60.90;;;;;;4984488;28;20995;-67
2022/07/15 10:51:10;;;;;;;10.38;6.40;;;24.80;61.00;;;;;;4978871;28;20400;-66
2022/07/15 10:53:45;;;;;;;7.63;6.20;;;24.90;61.00;;;;;;4972102;28;20415;-67
2022/07/15 10:56:30;;;;;;;10.63;6.53;;;24.90;60.80;;;;;;4985914;28;20401;-66
2022/07/15 10:59:17;;;;;;;9.63;6.45;;;24.90;60.90;;;;;;4978784;28;20475;-66
2022/07/15 11:01:45;;;;;;;9.32;6.10;;;24.90;61.10;;;;;;4971897;28;20402;-66
2022/07/15 11:04:11;;;;;;;9.10;6.35;;;24.80;61.20;;;;;;4973621;28;20431;-66
2022/07/15 11:07:07;;;;;;;11.57;6.10;;;24.90;61.00;;;;;;4973553;28;20400;-66
2022/07/15 11:10:12;;;;;;;12.63;6.20;;;24.90;60.80;;;;;;4964727;28;20432;-66
2022/07/15 11:12:50;;;;;;;10.13;5.65;;;24.90;60.80;;;;;;4973264;28;20400;-67
2022/07/15 11:15:17;;;;;;;9.48;6.00;;;24.90;61.70;;;;;;5003017;28;20457;-66
2022/07/15 11:17:52;;;;;;;9.30;6.15;;;24.90;61.50;;;;;;4990561;28;20405;-66
2022/07/15 11:20:24;;;;;;;7.55;6.18;;;24.90;61.30;;;;;;4981295;28;20392;-65
2022/07/15 11:22:52;;;;;;;7.93;5.87;;;25.00;61.40;;;;;;4971759;28;20802;-66
2022/07/15 11:25:37;;;;;;;7.28;5.78;;;25.00;61.00;;;;;;4972886;28;20396;-66
2022/07/15 11:28:12;;;;;;;9.75;6.00;;;25.00;61.00;;;;;;4972653;28;20424;-66
2022/07/15 11:30:43;;;;;;;6.57;5.40;;;25.00;60.70;;;;;;4974427;28;20405;-70
2022/07/15 11:33:13;;;;;;;7.15;5.82;;;25.00;60.60;;;;;;4983452;28;20415;-70
2022/07/15 11:35:46;;;;;;;8.90;5.72;;;25.10;60.70;;;;;;4980033;28;20445;-67
2022/07/15 11:38:11;;;;;;;6.20;5.60;;;25.00;60.70;;;;;;4983995;28;20400;-68
2022/07/15 11:46:13;;;;;;;7.47;5.50;;;25.10;60.90;;;;;;4981988;28;20426;-65
2022/07/15 11:48:40;;;;;;;8.50;5.50;;;25.10;60.70;;;;;;4981717;28;20424;-66
2022/07/15 11:51:08;;;;;;;7.35;5.18;;;25.10;61.00;;;;;;4985612;28;20387;-65
2022/07/15 11:53:37;;;;;;;8.18;4.90;;;25.10;60.70;;;;;;4975530;28;20431;-64
2022/07/15 11:56:03;;;;;;;8.10;5.70;;;25.10;60.80;;;;;;4994900;28;20400;-65
2022/07/15 11:58:44;;;;;;;5.80;5.15;;;25.10;60.60;;;;;;4972016;28;20392;-64
2022/07/15 12:01:12;;;;;;;5.82;5.30;;;25.10;60.80;;;;;;4972612;28;20864;-65
2022/07/15 12:03:46;;;;;;;5.55;5.00;;;25.10;60.80;;;;;;4972444;28;20901;-64
2022/07/15 12:06:21;;;;;;;6.78;5.38;;;25.10;60.70;;;;;;4972440;28;20479;-65
2022/07/15 12:08:52;;;;;;;5.70;5.10;;;25.10;60.60;;;;;;4972407;28;20426;-65
2022/07/15 12:11:18;;;;;;;6.43;4.88;;;25.10;60.70;;;;;;4972589;28;20395;-65
2022/07/15 12:13:50;;;;;;;5.30;4.80;;;25.10;60.70;;;;;;4972171;28;20396;-66
2022/07/15 12:16:26;;;;;;;6.60;5.35;;;25.10;60.60;;;;;;4987123;28;20392;-66
2022/07/15 12:18:54;;;;;;;9.20;5.57;;;25.20;60.70;;;;;;4972343;28;20399;-66
2022/07/15 12:21:20;;;;;;;7.30;5.30;;;25.20;60.60;;;;;;4972091;28;20388;-66
2022/07/15 12:24:03;;;;;;;7.40;5.70;;;25.20;60.80;;;;;;4971870;28;20475;-66
2022/07/15 12:26:29;;;;;;;7.32;5.72;;;25.30;61.20;;;;;;4998228;28;20403;-65
2022/07/15 12:28:58;;;;;;;6.82;5.55;;;25.30;61.00;;;;;;4990592;28;20422;-65
2022/07/15 12:31:29;;;;;;;6.40;5.22;;;25.40;61.10;;;;;;4990432;28;20967;-65
2022/07/15 12:33:55;;;;;;;6.53;5.70;;;25.50;61.10;;;;;;4983736;28;20440;-65
2022/07/15 12:36:24;;;;;;;8.25;5.90;;;25.50;61.00;;;;;;4981125;28;20390;-69
2022/07/15 12:39:16;;;;;;;6.60;5.63;;;25.50;60.60;;;;;;4982910;28;20396;-66
2022/07/15 12:41:43;;;;;;;7.60;6.35;;;25.60;60.50;;;;;;4979389;28;20403;-66
2022/07/15 12:44:10;;;;;;;9.13;6.20;;;25.60;61.10;;;;;;4972416;28;20396;-67
2022/07/15 12:47:00;;;;;;;7.47;6.45;;;25.60;60.50;;;;;;4972538;28;20423;-65
2022/07/15 12:49:49;;;;;;;9.50;7.22;;;25.70;60.50;;;;;;4971804;28;20438;-66
2022/07/15 12:52:30;;;;;;;9.10;7.90;;;25.70;60.40;;;;;;4972200;28;20401;-65
2022/07/15 12:54:56;;;;;;;10.73;7.45;;;25.80;61.10;;;;;;4972411;28;20902;-66
2022/07/15 12:57:24;;;;;;;8.95;7.63;;;25.80;60.80;;;;;;4972662;28;20400;-66
2022/07/15 13:00:10;;;;;;;9.27;8.27;;;25.80;60.70;;;;;;4970187;28;20445;-69
2022/07/15 13:03:19;;;;;;;10.05;9.05;;;25.90;61.00;;;;;;4971077;28;20407;-67
2022/07/15 13:05:47;;;;;;;10.05;8.52;;;25.90;61.20;;;;;;4951649;28;20400;-67
2022/07/15 13:08:20;;;;;;;9.25;8.00;;;25.90;60.70;;;;;;4969589;28;20894;-67